createdAt,value
2019-03-08T00:00:45.460Z,62.85
2019-03-08T00:01:45.454Z,63.91
2019-03-08T00:02:45.426Z,63.20
2019-03-08T00:03:45.423Z,63.50
2019-03-08T00:04:45.407Z,63.40
2019-03-08T00:05:45.396Z,63.06
2019-03-08T00:06:45.391Z,63.57
2019-03-08T00:07:45.375Z,63.27
2019-03-08T00:08:45.358Z,63.89
2019-03-08T00:09:45.352Z,64.09
2019-03-08T00:10:45.337Z,63.98
2019-03-08T00:11:45.328Z,63.89
2019-03-08T00:12:45.335Z,64.09
2019-03-08T00:13:45.315Z,64.09
2019-03-08T00:14:45.295Z,64.63
2019-03-08T00:15:45.290Z,65.05
2019-03-08T00:16:45.296Z,64.73
2019-03-08T00:17:45.272Z,64.81
2019-03-08T00:18:45.263Z,64.22
2019-03-08T00:19:45.243Z,64.01
2019-03-08T00:20:45.227Z,64.09
2019-03-08T00:21:45.222Z,64.60
2019-03-08T00:22:45.208Z,63.98
2019-03-08T00:23:45.197Z,63.98
2019-03-08T00:24:45.218Z,64.12
2019-03-08T00:25:45.187Z,64.12
2019-03-08T00:26:45.166Z,64.09
2019-03-08T00:27:45.156Z,64.94
2019-03-08T00:28:45.146Z,64.73
2019-03-08T00:29:45.135Z,64.53
2019-03-08T00:30:45.123Z,64.73
2019-03-08T00:31:45.116Z,64.43
2019-03-08T00:32:45.104Z,64.50
2019-03-08T00:33:45.090Z,64.43
2019-03-08T00:34:45.092Z,64.32
2019-03-08T00:35:45.073Z,64.43
2019-03-08T00:36:45.066Z,65.05
2019-03-08T00:37:45.054Z,64.84
2019-03-08T00:38:45.034Z,65.05
2019-03-08T00:39:45.026Z,65.14
2019-03-08T00:40:45.019Z,64.94
2019-03-08T00:41:45.010Z,64.73
2019-03-08T00:42:44.996Z,64.73
2019-03-08T00:43:44.984Z,64.73
2019-03-08T00:44:44.970Z,64.63
2019-03-08T00:45:44.960Z,64.84
2019-03-08T00:46:44.954Z,64.94
2019-03-08T00:47:44.962Z,64.94
2019-03-08T00:48:44.931Z,65.38
2019-03-08T00:49:44.917Z,66.00
2019-03-08T00:50:44.911Z,65.56
2019-03-08T00:51:44.906Z,65.14
2019-03-08T00:52:44.889Z,65.28
2019-03-08T00:53:44.875Z,65.69
2019-03-08T00:54:44.859Z,66.20
2019-03-08T00:55:44.860Z,66.00
2019-03-08T00:56:44.839Z,66.28
2019-03-08T00:57:44.829Z,66.89
2019-03-08T00:58:44.829Z,66.72
2019-03-08T00:59:44.822Z,67.03
2019-03-08T01:00:44.819Z,67.44
2019-03-08T01:01:44.800Z,67.16
2019-03-08T01:02:44.774Z,67.03
2019-03-08T01:03:44.759Z,66.82
2019-03-08T01:04:44.758Z,67.65
2019-03-08T01:05:44.742Z,67.03
2019-03-08T01:06:44.734Z,67.03
2019-03-08T01:07:44.715Z,66.72
2019-03-08T01:08:44.721Z,67.54
2019-03-08T01:09:44.704Z,67.23
2019-03-08T01:10:44.698Z,67.44
2019-03-08T01:11:45.402Z,67.13
2019-03-08T01:12:44.670Z,68.37
2019-03-08T01:13:44.658Z,68.29
2019-03-08T01:14:44.656Z,68.16
2019-03-08T01:15:44.633Z,68.05
2019-03-08T01:16:44.620Z,68.37
2019-03-08T01:17:44.615Z,68.40
2019-03-08T01:18:44.602Z,67.54
2019-03-08T01:19:44.590Z,68.05
2019-03-08T01:20:44.582Z,67.95
2019-03-08T01:21:44.574Z,68.57
2019-03-08T01:22:44.564Z,68.19
2019-03-08T01:23:44.546Z,68.40
2019-03-08T01:24:44.536Z,68.19
2019-03-08T01:25:44.539Z,68.46
2019-03-08T01:26:44.521Z,68.67
2019-03-08T01:27:44.511Z,68.37
2019-03-08T01:28:44.494Z,68.50
2019-03-08T01:29:44.482Z,68.67
2019-03-08T01:30:44.476Z,68.46
2019-03-08T01:31:44.454Z,68.37
2019-03-08T01:32:44.456Z,68.57
2019-03-08T01:33:44.442Z,68.37
2019-03-08T01:34:44.422Z,67.85
2019-03-08T01:35:44.416Z,67.95
2019-03-08T01:36:44.416Z,67.95
2019-03-08T01:37:44.400Z,67.23
2019-03-08T01:38:44.392Z,67.75
2019-03-08T01:39:44.378Z,67.23
2019-03-08T01:40:44.362Z,67.54
2019-03-08T01:41:44.350Z,67.44
2019-03-08T01:42:44.338Z,67.44
2019-03-08T01:43:44.336Z,67.23
2019-03-08T01:44:44.330Z,67.44
2019-03-08T01:45:44.306Z,67.33
2019-03-08T01:46:44.296Z,67.03
2019-03-08T01:47:44.280Z,68.05
2019-03-08T01:48:44.277Z,68.16
2019-03-08T01:49:44.268Z,67.95
2019-03-08T01:50:44.255Z,67.95
2019-03-08T01:51:44.242Z,68.57
2019-03-08T01:52:44.228Z,68.26
2019-03-08T01:53:44.265Z,68.67
2019-03-08T01:54:44.222Z,67.85
2019-03-08T01:55:44.218Z,67.85
2019-03-08T01:56:44.194Z,67.85
2019-03-08T01:57:44.178Z,68.26
2019-03-08T01:58:44.163Z,68.46
2019-03-08T01:59:44.153Z,68.46
2019-03-08T02:00:44.146Z,68.26
2019-03-08T02:01:44.132Z,68.67
2019-03-08T02:02:44.134Z,68.40
2019-03-08T02:03:44.114Z,68.60
2019-03-08T02:04:44.104Z,68.37
2019-03-08T02:05:44.092Z,68.26
2019-03-08T02:06:44.086Z,68.05
2019-03-08T02:07:44.071Z,67.03
2019-03-08T02:08:44.054Z,68.05
2019-03-08T02:09:44.050Z,67.23
2019-03-08T02:10:44.032Z,67.33
2019-03-08T02:11:44.032Z,67.54
2019-03-08T02:12:44.027Z,67.23
2019-03-08T02:13:44.001Z,67.65
2019-03-08T02:14:43.985Z,67.03
2019-03-08T02:15:43.976Z,67.75
2019-03-08T02:16:43.971Z,67.65
2019-03-08T02:17:43.961Z,67.54
2019-03-08T02:18:43.946Z,67.54
2019-03-08T02:19:43.940Z,67.54
2019-03-08T02:20:43.928Z,67.95
2019-03-08T02:21:43.929Z,67.65
2019-03-08T02:22:43.908Z,67.85
2019-03-08T02:23:43.897Z,67.65
2019-03-08T02:24:43.914Z,67.85
2019-03-08T02:25:45.623Z,67.65
2019-03-08T02:26:43.855Z,66.93
2019-03-08T02:27:43.854Z,67.54
2019-03-08T02:28:43.852Z,66.82
2019-03-08T02:29:43.826Z,67.75
2019-03-08T02:30:43.816Z,67.75
2019-03-08T02:31:43.805Z,67.54
2019-03-08T02:32:43.802Z,67.85
2019-03-08T02:33:43.783Z,67.23
2019-03-08T02:34:43.780Z,67.65
2019-03-08T02:35:43.798Z,67.75
2019-03-08T02:36:43.748Z,66.93
2019-03-08T02:37:43.744Z,67.23
2019-03-08T02:38:43.720Z,67.61
2019-03-08T02:39:43.726Z,67.33
2019-03-08T02:40:43.726Z,67.13
2019-03-08T02:41:43.698Z,67.23
2019-03-08T02:42:43.684Z,67.03
2019-03-08T02:43:43.668Z,67.23
2019-03-08T02:44:43.664Z,67.13
2019-03-08T02:45:43.657Z,67.33
2019-03-08T02:46:43.644Z,67.10
2019-03-08T02:47:43.632Z,67.33
2019-03-08T02:48:43.623Z,67.23
2019-03-08T02:49:43.612Z,67.23
2019-03-08T02:50:43.613Z,67.13
2019-03-08T02:51:43.594Z,67.33
2019-03-08T02:52:43.584Z,67.65
2019-03-08T02:53:43.566Z,67.23
2019-03-08T02:54:43.554Z,67.33
2019-03-08T02:55:43.546Z,67.23
2019-03-08T02:56:43.538Z,67.03
2019-03-08T02:57:43.534Z,67.13
2019-03-08T02:58:43.516Z,67.23
2019-03-08T02:59:43.505Z,67.03
2019-03-08T03:00:43.490Z,67.23
2019-03-08T03:01:43.478Z,67.33
2019-03-08T03:02:43.483Z,67.13
2019-03-08T03:03:43.456Z,67.03
2019-03-08T03:04:43.450Z,66.93
2019-03-08T03:05:43.435Z,67.03
2019-03-08T03:06:43.430Z,66.72
2019-03-08T03:07:43.420Z,66.61
2019-03-08T03:08:43.406Z,66.61
2019-03-08T03:09:43.396Z,67.03
2019-03-08T03:10:43.380Z,67.03
2019-03-08T03:11:43.389Z,67.23
2019-03-08T03:12:43.364Z,66.20
2019-03-08T03:13:43.346Z,66.31
2019-03-08T03:14:43.360Z,66.72
2019-03-08T03:15:43.324Z,66.72
2019-03-08T03:16:43.313Z,66.82
2019-03-08T03:17:43.307Z,66.72
2019-03-08T03:18:43.291Z,67.03
2019-03-08T03:19:43.280Z,66.61
2019-03-08T03:20:43.274Z,65.59
2019-03-08T03:21:43.266Z,65.38
2019-03-08T03:22:43.252Z,65.48
2019-03-08T03:23:43.255Z,65.17
2019-03-08T03:24:43.266Z,65.28
2019-03-08T03:25:43.228Z,65.28
2019-03-08T03:26:43.202Z,65.17
2019-03-08T03:27:43.197Z,65.17
2019-03-08T03:28:43.182Z,65.25
2019-03-08T03:29:43.180Z,65.38
2019-03-08T03:30:43.176Z,65.48
2019-03-08T03:31:43.153Z,65.38
2019-03-08T03:32:43.143Z,65.45
2019-03-08T03:33:43.134Z,65.80
2019-03-08T03:34:43.119Z,65.14
2019-03-08T03:35:43.106Z,65.48
2019-03-08T03:36:43.103Z,65.17
2019-03-08T03:37:43.090Z,65.25
2019-03-08T03:38:43.078Z,65.25
2019-03-08T03:39:43.068Z,65.25
2019-03-08T03:40:43.070Z,65.35
2019-03-08T03:41:43.052Z,65.69
2019-03-08T03:42:43.048Z,65.45
2019-03-08T03:43:43.026Z,65.28
2019-03-08T03:44:43.015Z,65.59
2019-03-08T03:45:43.006Z,65.48
2019-03-08T03:46:42.994Z,65.38
2019-03-08T03:47:43.008Z,65.28
2019-03-08T03:48:42.970Z,65.35
2019-03-08T03:49:42.974Z,65.14
2019-03-08T03:50:42.950Z,64.94
2019-03-08T03:51:42.937Z,64.87
2019-03-08T03:52:42.924Z,64.43
2019-03-08T03:53:42.919Z,64.63
2019-03-08T03:54:42.899Z,64.53
2019-03-08T03:55:42.897Z,64.32
2019-03-08T03:56:42.892Z,63.50
2019-03-08T03:57:42.870Z,63.81
2019-03-08T03:58:42.865Z,63.40
2019-03-08T03:59:42.852Z,63.71
2019-03-08T04:00:42.855Z,63.60
2019-03-08T04:01:42.832Z,63.71
2019-03-08T04:02:42.819Z,64.01
2019-03-08T04:03:42.807Z,63.50
2019-03-08T04:04:42.805Z,63.60
2019-03-08T04:05:42.786Z,63.40
2019-03-08T04:06:42.773Z,63.71
2019-03-08T04:07:42.765Z,63.60
2019-03-08T04:08:42.763Z,63.09
2019-03-08T04:09:42.740Z,62.68
2019-03-08T04:10:42.766Z,63.17
2019-03-08T04:11:42.718Z,62.45
2019-03-08T04:12:42.712Z,62.55
2019-03-08T04:13:42.694Z,62.55
2019-03-08T04:14:42.687Z,61.93
2019-03-08T04:15:42.681Z,61.93
2019-03-08T04:16:42.673Z,62.85
2019-03-08T04:17:42.657Z,62.55
2019-03-08T04:18:42.646Z,61.21
2019-03-08T04:19:42.634Z,61.42
2019-03-08T04:20:42.621Z,62.65
2019-03-08T04:21:42.615Z,62.45
2019-03-08T04:22:42.607Z,62.52
2019-03-08T04:23:42.622Z,61.60
2019-03-08T04:24:42.577Z,61.00
2019-03-08T04:25:42.578Z,62.55
2019-03-08T04:26:42.558Z,62.24
2019-03-08T04:27:42.547Z,62.55
2019-03-08T04:28:42.539Z,61.60
2019-03-08T04:29:42.524Z,61.72
2019-03-08T04:30:42.510Z,61.72
2019-03-08T04:31:42.504Z,62.65
2019-03-08T04:32:42.499Z,61.83
2019-03-08T04:33:42.478Z,62.34
2019-03-08T04:34:42.465Z,61.62
2019-03-08T04:35:42.465Z,62.75
2019-03-08T04:36:42.451Z,62.34
2019-03-08T04:37:42.439Z,61.62
2019-03-08T04:38:42.441Z,61.80
2019-03-08T04:39:42.414Z,61.39
2019-03-08T04:40:42.401Z,61.08
2019-03-08T04:41:42.390Z,61.18
2019-03-08T04:42:42.379Z,61.21
2019-03-08T04:43:42.377Z,61.52
2019-03-08T04:44:42.373Z,61.08
2019-03-08T04:45:42.345Z,60.98
2019-03-08T04:46:42.363Z,60.16
2019-03-08T04:47:42.323Z,61.18
2019-03-08T04:48:42.315Z,60.67
2019-03-08T04:49:42.315Z,60.57
2019-03-08T04:50:42.297Z,60.16
2019-03-08T04:51:42.284Z,60.98
2019-03-08T04:52:42.274Z,61.60
2019-03-08T04:53:42.266Z,61.70
2019-03-08T04:54:42.251Z,61.18
2019-03-08T04:55:42.247Z,61.70
2019-03-08T04:56:42.231Z,62.01
2019-03-08T04:57:42.218Z,61.90
2019-03-08T04:58:42.224Z,61.90
2019-03-08T04:59:42.208Z,61.18
2019-03-08T05:00:42.207Z,62.62
2019-03-08T05:01:42.180Z,62.62
2019-03-08T05:02:42.169Z,62.41
2019-03-08T05:03:42.157Z,62.11
2019-03-08T05:04:42.143Z,61.70
2019-03-08T05:05:42.132Z,61.70
2019-03-08T05:06:42.124Z,61.39
2019-03-08T05:07:42.132Z,62.31
2019-03-08T05:08:42.115Z,61.80
2019-03-08T05:09:42.093Z,60.98
2019-03-08T05:10:42.081Z,61.29
2019-03-08T05:11:42.080Z,60.98
2019-03-08T05:12:42.064Z,61.18
2019-03-08T05:13:42.048Z,60.98
2019-03-08T05:14:42.040Z,61.39
2019-03-08T05:15:42.032Z,62.11
2019-03-08T05:16:42.025Z,62.11
2019-03-08T05:17:42.007Z,60.77
2019-03-08T05:18:41.998Z,61.60
2019-03-08T05:19:41.988Z,60.98
2019-03-08T05:20:41.971Z,62.41
2019-03-08T05:21:41.972Z,62.21
2019-03-08T05:22:41.961Z,62.21
2019-03-08T05:23:41.949Z,61.18
2019-03-08T05:24:41.946Z,61.90
2019-03-08T05:25:41.918Z,61.18
2019-03-08T05:26:41.915Z,61.08
2019-03-08T05:27:41.898Z,61.60
2019-03-08T05:28:41.890Z,60.98
2019-03-08T05:29:41.881Z,60.98
2019-03-08T05:30:41.868Z,61.18
2019-03-08T05:31:41.862Z,61.29
2019-03-08T05:32:41.844Z,61.08
2019-03-08T05:33:41.841Z,61.29
2019-03-08T05:34:41.829Z,61.60
2019-03-08T05:35:41.818Z,61.39
2019-03-08T05:36:41.806Z,61.18
2019-03-08T05:37:41.793Z,61.67
2019-03-08T05:38:41.783Z,61.49
2019-03-08T05:39:41.774Z,60.77
2019-03-08T05:40:41.766Z,61.29
2019-03-08T05:41:41.767Z,61.60
2019-03-08T05:42:41.753Z,61.26
2019-03-08T05:43:41.732Z,60.85
2019-03-08T05:44:41.722Z,60.33
2019-03-08T05:45:41.724Z,60.54
2019-03-08T05:46:41.698Z,59.82
2019-03-08T05:47:41.686Z,61.16
2019-03-08T05:48:41.677Z,60.03
2019-03-08T05:49:41.663Z,60.64
2019-03-08T05:50:41.659Z,61.16
2019-03-08T05:51:41.648Z,60.64
2019-03-08T05:52:41.643Z,60.95
2019-03-08T05:53:41.621Z,61.16
2019-03-08T05:54:41.610Z,60.95
2019-03-08T05:55:41.606Z,60.54
2019-03-08T05:56:41.607Z,61.57
2019-03-08T05:57:41.585Z,61.26
2019-03-08T05:58:41.577Z,60.95
2019-03-08T05:59:41.561Z,61.46
2019-03-08T06:00:41.545Z,61.26
2019-03-08T06:01:41.557Z,60.75
2019-03-08T06:02:41.527Z,60.85
2019-03-08T06:03:41.530Z,61.26
2019-03-08T06:04:41.511Z,59.92
2019-03-08T06:05:41.494Z,61.36
2019-03-08T06:06:41.490Z,60.03
2019-03-08T06:07:41.480Z,60.95
2019-03-08T06:08:41.484Z,61.26
2019-03-08T06:09:41.460Z,61.36
2019-03-08T06:10:41.444Z,59.62
2019-03-08T06:11:41.436Z,60.72
2019-03-08T06:12:41.426Z,60.54
2019-03-08T06:13:41.410Z,60.64
2019-03-08T06:14:41.406Z,61.46
2019-03-08T06:15:41.396Z,61.26
2019-03-08T06:16:41.382Z,61.26
2019-03-08T06:17:41.374Z,60.64
2019-03-08T06:18:41.370Z,61.98
2019-03-08T06:19:41.355Z,61.36
2019-03-08T06:20:41.345Z,60.64
2019-03-08T06:21:41.333Z,60.54
2019-03-08T06:22:41.324Z,59.82
2019-03-08T06:23:41.311Z,60.95
2019-03-08T06:24:41.302Z,61.57
2019-03-08T06:25:41.290Z,61.87
2019-03-08T06:26:41.290Z,61.33
2019-03-08T06:27:41.266Z,61.05
2019-03-08T06:28:41.256Z,61.16
2019-03-08T06:29:41.254Z,60.85
2019-03-08T06:30:41.240Z,60.75
2019-03-08T06:31:41.235Z,61.16
2019-03-08T06:32:41.214Z,60.44
2019-03-08T06:33:41.207Z,61.36
2019-03-08T06:34:41.198Z,60.72
2019-03-08T06:35:41.201Z,60.92
2019-03-08T06:36:41.176Z,60.72
2019-03-08T06:37:41.183Z,61.13
2019-03-08T06:38:41.173Z,61.05
2019-03-08T06:39:41.167Z,60.95
2019-03-08T06:40:41.180Z,61.44
2019-03-08T06:41:41.116Z,60.41
2019-03-08T06:42:41.119Z,60.72
2019-03-08T06:43:41.100Z,61.74
2019-03-08T06:44:41.097Z,61.74
2019-03-08T06:45:41.085Z,60.72
2019-03-08T06:46:41.075Z,60.82
2019-03-08T06:47:41.056Z,62.70
2019-03-08T06:48:41.045Z,61.57
2019-03-08T06:49:41.049Z,63.07
2019-03-08T06:50:41.027Z,62.49
2019-03-08T06:51:41.020Z,61.64
2019-03-08T06:52:41.002Z,61.95
2019-03-08T06:53:40.993Z,61.98
2019-03-08T06:54:40.982Z,61.64
2019-03-08T06:55:40.974Z,61.87
2019-03-08T06:56:40.956Z,62.08
2019-03-08T06:57:40.961Z,62.05
2019-03-08T06:58:40.950Z,61.98
2019-03-08T06:59:40.938Z,61.46
2019-03-08T07:00:40.930Z,61.67
2019-03-08T07:01:40.920Z,61.67
2019-03-08T07:02:40.894Z,61.67
2019-03-08T07:03:40.890Z,61.85
2019-03-08T07:04:40.883Z,62.18
2019-03-08T07:05:40.868Z,61.87
2019-03-08T07:06:40.866Z,62.08
2019-03-08T07:07:40.871Z,62.05
2019-03-08T07:08:40.841Z,63.21
2019-03-08T07:09:40.826Z,62.36
2019-03-08T07:10:40.812Z,63.10
2019-03-08T07:11:40.806Z,62.90
2019-03-08T07:12:40.798Z,62.90
2019-03-08T07:13:40.784Z,62.39
2019-03-08T07:14:40.768Z,63.00
2019-03-08T07:15:40.760Z,62.70
2019-03-08T07:16:40.748Z,62.29
2019-03-08T07:17:40.737Z,62.36
2019-03-08T07:18:40.724Z,62.70
2019-03-08T07:19:41.887Z,62.49
2019-03-08T07:20:40.704Z,62.66
2019-03-08T07:21:40.702Z,62.77
2019-03-08T07:22:40.690Z,62.77
2019-03-08T07:23:40.676Z,62.80
2019-03-08T07:24:40.665Z,62.98
2019-03-08T07:25:40.656Z,62.77
2019-03-08T07:26:40.649Z,62.77
2019-03-08T07:27:40.634Z,62.90
2019-03-08T07:28:40.623Z,62.98
2019-03-08T07:29:40.618Z,63.07
2019-03-08T07:30:40.629Z,63.39
2019-03-08T07:31:40.596Z,63.79
2019-03-08T07:32:40.578Z,63.49
2019-03-08T07:33:40.566Z,63.39
2019-03-08T07:34:40.558Z,62.87
2019-03-08T07:35:40.553Z,63.49
2019-03-08T07:36:40.540Z,63.18
2019-03-08T07:37:40.528Z,63.39
2019-03-08T07:38:40.514Z,62.87
2019-03-08T07:39:40.515Z,63.28
2019-03-08T07:40:40.495Z,62.87
2019-03-08T07:41:40.486Z,62.87
2019-03-08T07:42:40.467Z,63.07
2019-03-08T07:43:40.462Z,63.07
2019-03-08T07:44:40.451Z,63.18
2019-03-08T07:45:40.440Z,63.18
2019-03-08T07:46:40.438Z,63.25
2019-03-08T07:47:40.414Z,62.63
2019-03-08T07:48:40.411Z,63.39
2019-03-08T07:49:40.409Z,63.18
2019-03-08T07:50:40.383Z,63.18
2019-03-08T07:51:40.379Z,63.39
2019-03-08T07:52:40.370Z,63.18
2019-03-08T07:53:40.352Z,62.87
2019-03-08T07:54:40.339Z,63.66
2019-03-08T07:55:40.334Z,62.98
2019-03-08T07:56:40.325Z,63.05
2019-03-08T07:57:40.314Z,62.74
2019-03-08T07:58:40.310Z,63.39
2019-03-08T07:59:40.291Z,62.95
2019-03-08T08:00:40.284Z,63.56
2019-03-08T08:01:40.274Z,63.59
2019-03-08T08:02:40.258Z,63.28
2019-03-08T08:03:40.256Z,63.25
2019-03-08T08:04:40.229Z,63.46
2019-03-08T08:05:40.234Z,63.25
2019-03-08T08:06:40.230Z,63.46
2019-03-08T08:07:40.258Z,63.25
2019-03-08T08:08:40.192Z,62.95
2019-03-08T08:09:40.190Z,62.54
2019-03-08T08:10:40.183Z,62.40
2019-03-08T08:11:40.161Z,63.05
2019-03-08T08:12:40.153Z,63.56
2019-03-08T08:13:40.144Z,63.05
2019-03-08T08:14:40.132Z,63.56
2019-03-08T08:15:40.130Z,63.79
2019-03-08T08:16:40.110Z,63.66
2019-03-08T08:17:40.101Z,63.25
2019-03-08T08:18:40.094Z,63.59
2019-03-08T08:19:40.079Z,63.59
2019-03-08T08:20:40.074Z,63.39
2019-03-08T08:21:40.057Z,63.90
2019-03-08T08:22:40.046Z,64.00
2019-03-08T08:23:40.038Z,64.61
2019-03-08T08:24:40.033Z,64.72
2019-03-08T08:25:40.017Z,64.10
2019-03-08T08:26:40.047Z,64.51
2019-03-08T08:27:39.996Z,64.20
2019-03-08T08:28:39.982Z,65.03
2019-03-08T08:29:39.990Z,64.72
2019-03-08T08:30:39.972Z,64.51
2019-03-08T08:31:39.956Z,64.61
2019-03-08T08:32:39.950Z,65.03
2019-03-08T08:33:39.932Z,65.12
2019-03-08T08:34:39.920Z,65.12
2019-03-08T08:35:39.911Z,65.33
2019-03-08T08:36:39.895Z,65.54
2019-03-08T08:37:39.895Z,65.12
2019-03-08T08:38:39.894Z,65.74
2019-03-08T08:39:41.044Z,65.33
2019-03-08T08:40:39.859Z,65.12
2019-03-08T08:41:39.850Z,65.84
2019-03-08T08:42:39.832Z,65.44
2019-03-08T08:43:39.832Z,65.84
2019-03-08T08:44:39.815Z,65.12
2019-03-08T08:45:39.812Z,65.44
2019-03-08T08:46:39.797Z,65.33
2019-03-08T08:47:39.784Z,65.23
2019-03-08T08:48:39.767Z,65.44
2019-03-08T08:49:39.758Z,65.12
2019-03-08T08:50:39.748Z,65.33
2019-03-08T08:51:39.737Z,65.44
2019-03-08T08:52:39.719Z,65.33
2019-03-08T08:53:39.724Z,65.23
2019-03-08T08:54:39.754Z,65.23
2019-03-08T08:55:39.699Z,65.03
2019-03-08T08:56:39.682Z,65.84
2019-03-08T08:57:39.671Z,65.33
2019-03-08T08:58:39.661Z,65.33
2019-03-08T08:59:39.655Z,65.03
2019-03-08T09:00:39.661Z,65.44
2019-03-08T09:01:39.631Z,65.23
2019-03-08T09:02:39.624Z,65.03
2019-03-08T09:03:39.634Z,65.54
2019-03-08T09:04:39.598Z,65.95
2019-03-08T09:05:39.604Z,65.33
2019-03-08T09:06:39.586Z,65.54
2019-03-08T09:07:39.561Z,65.44
2019-03-08T09:08:39.557Z,65.03
2019-03-08T09:09:39.545Z,65.74
2019-03-08T09:10:39.538Z,65.95
2019-03-08T09:11:45.928Z,66.56
2019-03-08T09:12:40.510Z,66.46
2019-03-08T09:13:39.504Z,66.87
2019-03-08T09:14:39.497Z,66.46
2019-03-08T09:15:39.487Z,66.49
2019-03-08T09:16:39.480Z,66.67
2019-03-08T09:17:39.468Z,66.87
2019-03-08T09:18:39.460Z,66.56
2019-03-08T09:19:39.438Z,66.25
2019-03-08T09:20:39.430Z,66.56
2019-03-08T09:21:39.422Z,66.87
2019-03-08T09:22:39.409Z,67.69
2019-03-08T09:23:39.410Z,67.69
2019-03-08T09:24:39.400Z,68.51
2019-03-08T09:25:39.374Z,68.41
2019-03-08T09:26:39.368Z,68.00
2019-03-08T09:27:39.353Z,68.72
2019-03-08T09:28:39.356Z,68.75
2019-03-08T09:29:41.520Z,69.06
2019-03-08T09:30:39.325Z,69.67
2019-03-08T09:31:39.314Z,69.78
2019-03-08T09:32:39.296Z,69.95
2019-03-08T09:33:39.297Z,69.74
2019-03-08T09:34:39.287Z,69.74
2019-03-08T09:35:39.287Z,69.74
2019-03-08T09:36:39.263Z,69.78
2019-03-08T09:37:39.246Z,69.74
2019-03-08T09:38:39.242Z,69.88
2019-03-08T09:39:39.222Z,69.95
2019-03-08T09:40:39.214Z,70.18
2019-03-08T09:41:39.198Z,69.64
2019-03-08T09:42:39.246Z,69.43
2019-03-08T09:43:39.178Z,69.54
2019-03-08T09:44:39.183Z,69.84
2019-03-08T09:45:39.158Z,69.74
2019-03-08T09:46:39.158Z,69.54
2019-03-08T09:47:39.134Z,69.64
2019-03-08T09:48:39.373Z,69.64
2019-03-08T09:49:39.111Z,69.54
2019-03-08T09:50:39.102Z,69.74
2019-03-08T09:51:39.120Z,69.64
2019-03-08T09:52:39.090Z,70.77
2019-03-08T09:53:39.068Z,70.56
2019-03-08T09:54:39.060Z,71.59
2019-03-08T09:55:39.044Z,71.72
2019-03-08T09:56:39.039Z,71.59
2019-03-08T09:57:39.025Z,71.80
2019-03-08T09:58:39.018Z,72.24
2019-03-08T09:59:39.038Z,72.75
2019-03-08T10:00:38.998Z,73.10
2019-03-08T10:01:38.988Z,72.55
2019-03-08T10:02:38.979Z,72.58
2019-03-08T10:03:38.990Z,72.99
2019-03-08T10:04:38.973Z,72.65
2019-03-08T10:05:38.979Z,73.06
2019-03-08T10:06:38.929Z,73.06
2019-03-08T10:07:38.923Z,72.75
2019-03-08T10:08:38.923Z,72.10
2019-03-08T10:09:38.896Z,72.55
2019-03-08T10:10:38.886Z,71.80
2019-03-08T10:11:38.869Z,71.80
2019-03-08T10:12:38.867Z,72.20
2019-03-08T10:13:38.864Z,71.25
2019-03-08T10:14:38.847Z,70.84
2019-03-08T10:15:38.829Z,70.94
2019-03-08T10:16:38.821Z,70.87
2019-03-08T10:17:38.812Z,71.59
2019-03-08T10:18:40.221Z,71.39
2019-03-08T10:19:38.791Z,71.39
2019-03-08T10:20:38.782Z,71.80
2019-03-08T10:21:38.768Z,71.80
2019-03-08T10:22:38.761Z,72.51
2019-03-08T10:23:38.751Z,72.20
2019-03-08T10:24:38.744Z,72.31
2019-03-08T10:25:38.723Z,72.17
2019-03-08T10:26:38.727Z,72.31
2019-03-08T10:27:38.695Z,72.68
2019-03-08T10:28:38.689Z,72.72
2019-03-08T10:29:38.680Z,73.02
2019-03-08T10:30:38.663Z,73.02
2019-03-08T10:31:38.662Z,72.99
2019-03-08T10:32:38.640Z,72.48
2019-03-08T10:33:46.282Z,72.24
2019-03-08T10:34:39.621Z,71.36
2019-03-08T10:35:38.607Z,70.23
2019-03-08T10:36:38.610Z,69.79
2019-03-08T10:37:38.598Z,68.46
2019-03-08T10:38:38.579Z,68.63
2019-03-08T10:39:38.570Z,68.32
2019-03-08T10:40:38.574Z,66.89
2019-03-08T10:41:38.543Z,66.83
2019-03-08T10:42:38.535Z,65.91
2019-03-08T10:43:38.529Z,66.25
2019-03-08T10:44:38.515Z,65.19
2019-03-08T10:45:38.503Z,66.28
2019-03-08T10:46:38.500Z,66.78
2019-03-08T10:47:38.487Z,68.32
2019-03-08T10:48:38.483Z,68.12
2019-03-08T10:49:38.460Z,66.49
2019-03-08T10:50:38.450Z,66.15
2019-03-08T10:51:38.434Z,64.75
2019-03-08T10:52:38.425Z,65.67
2019-03-08T10:53:38.420Z,64.99
2019-03-08T10:54:38.418Z,66.35
2019-03-08T10:55:38.434Z,67.40
2019-03-08T10:56:38.391Z,67.50
2019-03-08T10:57:38.375Z,67.43
2019-03-08T10:58:38.367Z,68.28
2019-03-08T10:59:38.354Z,68.41
2019-03-08T11:00:38.339Z,69.68
2019-03-08T11:01:38.330Z,69.57
2019-03-08T11:02:38.334Z,71.66
2019-03-08T11:03:38.333Z,71.86
2019-03-08T11:04:38.300Z,71.22
2019-03-08T11:05:38.316Z,69.85
2019-03-08T11:06:38.280Z,69.71
2019-03-08T11:07:38.271Z,69.58
2019-03-08T11:08:38.268Z,70.12
2019-03-08T11:09:38.242Z,69.92
2019-03-08T11:10:38.232Z,70.74
2019-03-08T11:11:38.222Z,72.00
2019-03-08T11:12:38.211Z,73.57
2019-03-08T11:13:43.249Z,75.04
2019-03-08T11:14:39.194Z,76.62
2019-03-08T11:15:38.177Z,77.74
2019-03-08T11:16:38.336Z,79.73
2019-03-08T11:17:38.161Z,79.93
2019-03-08T11:18:38.142Z,79.63
2019-03-08T11:19:38.143Z,79.56
2019-03-08T11:20:38.135Z,80.21
2019-03-08T11:21:38.214Z,80.77
2019-03-08T11:22:38.106Z,81.52
2019-03-08T11:23:38.089Z,82.14
2019-03-08T11:24:38.081Z,83.31
2019-03-08T11:25:38.118Z,83.97
2019-03-08T11:26:38.066Z,86.06
2019-03-08T11:27:38.062Z,86.99
2019-03-08T11:28:38.039Z,88.23
2019-03-08T11:29:38.032Z,86.88
2019-03-08T11:30:38.023Z,87.71
2019-03-08T11:31:38.010Z,87.30
2019-03-08T11:32:37.994Z,87.92
2019-03-08T11:33:37.987Z,88.47
2019-03-08T11:34:37.968Z,88.51
2019-03-08T11:35:37.960Z,89.13
2019-03-08T11:36:37.949Z,90.31
2019-03-08T11:37:37.942Z,90.88
2019-03-08T11:38:37.937Z,90.92
2019-03-08T11:39:37.948Z,91.13
2019-03-08T11:40:37.906Z,91.64
2019-03-08T11:41:37.896Z,91.96
2019-03-08T11:42:37.884Z,92.37
2019-03-08T11:43:37.878Z,92.27
2019-03-08T11:44:37.876Z,90.92
2019-03-08T11:45:37.856Z,90.78
2019-03-08T11:46:37.844Z,90.78
2019-03-08T11:47:37.833Z,89.19
2019-03-08T11:48:37.830Z,88.12
2019-03-08T11:49:37.814Z,88.33
2019-03-08T11:50:37.806Z,88.18
2019-03-08T11:51:37.782Z,88.02
2019-03-08T11:52:37.785Z,87.98
2019-03-08T11:53:37.774Z,88.59
2019-03-08T11:54:40.729Z,86.85
2019-03-08T11:55:37.751Z,87.12
2019-03-08T11:56:37.745Z,87.84
2019-03-08T11:57:37.721Z,87.22
2019-03-08T11:58:37.738Z,87.49
2019-03-08T11:59:37.717Z,87.75
2019-03-08T12:00:37.727Z,86.89
2019-03-08T12:01:37.705Z,84.59
2019-03-08T12:02:38.175Z,84.69
2019-03-08T12:03:37.669Z,84.45
2019-03-08T12:04:37.670Z,84.14
2019-03-08T12:05:37.663Z,84.92
2019-03-08T12:06:37.640Z,83.86
2019-03-08T12:07:37.646Z,83.31
2019-03-08T12:08:37.663Z,82.86
2019-03-08T12:09:37.600Z,82.10
2019-03-08T12:10:37.595Z,81.45
2019-03-08T12:11:37.587Z,80.26
2019-03-08T12:12:37.577Z,80.26
2019-03-08T12:13:37.587Z,80.22
2019-03-08T12:14:37.542Z,80.53
2019-03-08T12:15:37.539Z,80.94
2019-03-08T12:16:37.528Z,80.69
2019-03-08T12:17:37.507Z,78.31
2019-03-08T12:18:37.498Z,76.20
2019-03-08T12:19:37.488Z,74.26
2019-03-08T12:20:37.482Z,74.97
2019-03-08T12:21:37.484Z,73.44
2019-03-08T12:22:37.494Z,75.31
2019-03-08T12:23:37.459Z,74.60
2019-03-08T12:24:37.461Z,72.62
2019-03-08T12:25:37.444Z,72.58
2019-03-08T12:26:37.419Z,69.34
2019-03-08T12:27:37.412Z,69.55
2019-03-08T12:28:37.396Z,70.26
2019-03-08T12:29:37.430Z,72.00
2019-03-08T12:30:37.400Z,72.00
2019-03-08T12:31:37.364Z,73.16
2019-03-08T12:32:37.357Z,69.48
2019-03-08T12:33:37.361Z,69.41
2019-03-08T12:34:37.331Z,69.82
2019-03-08T12:35:37.335Z,72.07
2019-03-08T12:36:37.330Z,71.73
2019-03-08T12:37:37.351Z,69.89
2019-03-08T12:38:37.322Z,68.12
2019-03-08T12:39:37.286Z,67.81
2019-03-08T12:40:37.278Z,66.69
2019-03-08T12:41:37.271Z,67.40
2019-03-08T12:42:37.247Z,67.43
2019-03-08T12:43:37.244Z,66.99
2019-03-08T12:44:37.228Z,67.88
2019-03-08T12:45:37.236Z,67.13
2019-03-08T12:46:37.213Z,64.61
2019-03-08T12:47:37.217Z,64.20
2019-03-08T12:48:37.182Z,65.36
2019-03-08T12:49:37.171Z,65.69
2019-03-08T12:50:37.163Z,68.12
2019-03-08T12:51:37.186Z,66.92
2019-03-08T12:52:37.167Z,67.43